首页
METAR-TAF:

METAR-TAF

机场 :

Fort Belvoir, 弗吉尼亚州, 美国

纬度: 38-43N, 经度: 077-11W, 海拔: 21米

当前天气观测

该预报发布于14分钟前的17:56 UTC
风速14节,风向西北,有时为20节阵风
温度 12°C
湿度 50%
气压 1018 hPa
能見度: 16.1公里
多云层高于4000英尺
多云层高于7000英尺

METAR: KDAA 201756Z AUTO 31014G20KT 10SM BKN040 BKN070 12/02 A3006 RMK AO2 SLP182 T01170016 10126 20078 58001 $

时间: 13:10 (18:10 UTC)

预报

该预报发布于3小时和40分钟前的14:30 UTC
预报有效从20日的 14点(UTC)到 21日的 16点(UTC)
风速12节,风向西北
能见度10公里或以上
阴天层高于7000英尺
短暂存在
从 20日的 16点(UTC)到 20日的 20点(UTC)
风速15节,风向北转西北,有时为25节阵风
成为
从 20日的 19点(UTC)到 20日的 20点(UTC)
风速9节,风向北转西北
能见度10公里或以上
散云层高于4000英尺

TAF: KDAA 201430Z 2014/2116 31012KT 9999 OVC070 620702 QNH3003INS TEMPO 2016/2020 33015G25KT BECMG 2019/2020 33009KT 9999 SCT040 QNH3010INS TX12/2019Z TN04/2109Z

超过4000个机场的气象观测和天气预报(METAR&TAF报告)。

可查询的气象台以黄色和红色小点在地图上表示。

将鼠标移到小点上方,可查看气象台名称。

然后点击查看天气观测和预报。

如需切换地图:点击带黑十字的绿色按钮放大地图;点击带横线的绿色按钮缩小地图;或者点击绿色箭头查看邻近地区的地图。


METAR-TAF: